sensor_id;sensor_type;location;lat;lon;timestamp;P1;durP1;ratioP1;P2;durP2;ratioP2
84392;SDS011;74592;48.846;2.358;2024-01-30T18:49:35;4.28;;;2.35;;
84392;SDS011;74592;48.846;2.358;2024-01-30T18:52:01;4.70;;;2.35;;
84392;SDS011;74592;48.846;2.358;2024-01-30T18:54:28;2.90;;;1.75;;
84392;SDS011;74592;48.846;2.358;2024-01-30T18:57:58;5.25;;;2.25;;
84392;SDS011;74592;48.846;2.358;2024-01-30T19:00:24;3.90;;;2.00;;
84392;SDS011;74592;48.846;2.358;2024-01-30T19:02:50;4.18;;;1.88;;
84392;SDS011;74592;48.846;2.358;2024-01-30T19:07:15;4.95;;;2.13;;
84392;SDS011;74592;48.846;2.358;2024-01-30T19:09:40;3.63;;;2.10;;
84392;SDS011;74592;48.846;2.358;2024-01-30T19:12:06;3.70;;;1.90;;
84392;SDS011;74592;48.846;2.358;2024-01-30T19:14:32;4.43;;;2.08;;
84392;SDS011;74592;48.846;2.358;2024-01-30T19:16:59;4.65;;;1.80;;
84392;SDS011;74592;48.846;2.358;2024-01-30T19:19:24;3.60;;;2.22;;
84392;SDS011;74592;48.846;2.358;2024-01-30T19:21:50;3.83;;;1.65;;
84392;SDS011;74592;48.846;2.358;2024-01-30T19:24:17;4.35;;;2.28;;
84392;SDS011;74592;48.846;2.358;2024-01-30T19:26:43;5.97;;;1.63;;
84392;SDS011;74592;48.846;2.358;2024-01-30T19:29:08;3.53;;;2.00;;
84392;SDS011;74592;48.846;2.358;2024-01-30T19:31:34;6.90;;;2.30;;
84392;SDS011;74592;48.846;2.358;2024-01-30T19:34:03;4.15;;;1.85;;
84392;SDS011;74592;48.846;2.358;2024-01-30T19:36:29;4.22;;;1.85;;
84392;SDS011;74592;48.846;2.358;2024-01-30T19:38:54;4.82;;;1.83;;
84392;SDS011;74592;48.846;2.358;2024-01-30T19:41:23;6.93;;;2.20;;
84392;SDS011;74592;48.846;2.358;2024-01-30T19:43:49;4.38;;;1.70;;
84392;SDS011;74592;48.846;2.358;2024-01-30T19:46:14;5.43;;;1.92;;
84392;SDS011;74592;48.846;2.358;2024-01-30T19:48:40;4.03;;;1.88;;
84392;SDS011;74592;48.846;2.358;2024-01-30T19:51:06;5.82;;;2.03;;
84392;SDS011;74592;48.846;2.358;2024-01-30T19:53:32;5.10;;;2.17;;
84392;SDS011;74592;48.846;2.358;2024-01-30T19:55:58;3.97;;;2.13;;
84392;SDS011;74592;48.846;2.358;2024-01-30T19:58:23;6.72;;;2.65;;
84392;SDS011;74592;48.846;2.358;2024-01-30T20:00:49;43.92;;;33.58;;
84392;SDS011;74592;48.846;2.358;2024-01-30T20:03:15;95.38;;;72.45;;
84392;SDS011;74592;48.846;2.358;2024-01-30T20:05:40;82.75;;;63.97;;
84392;SDS011;74592;48.846;2.358;2024-01-30T20:08:06;69.05;;;51.75;;
84392;SDS011;74592;48.846;2.358;2024-01-30T20:10:32;136.68;;;106.57;;
84392;SDS011;74592;48.846;2.358;2024-01-30T20:12:57;184.73;;;136.48;;
84392;SDS011;74592;48.846;2.358;2024-01-30T20:15:23;222.50;;;162.93;;
84392;SDS011;74592;48.846;2.358;2024-01-30T20:17:49;285.55;;;220.63;;
84392;SDS011;74592;48.846;2.358;2024-01-30T20:20:15;261.63;;;198.90;;
84392;SDS011;74592;48.846;2.358;2024-01-30T20:22:42;237.07;;;176.90;;
84392;SDS011;74592;48.846;2.358;2024-01-30T20:25:09;209.40;;;154.25;;
84392;SDS011;74592;48.846;2.358;2024-01-30T20:27:37;208.82;;;154.77;;
84392;SDS011;74592;48.846;2.358;2024-01-30T20:30:03;271.40;;;221.65;;
84392;SDS011;74592;48.846;2.358;2024-01-30T20:32:30;256.63;;;199.77;;
84392;SDS011;74592;48.846;2.358;2024-01-30T20:34:56;282.00;;;222.38;;
84392;SDS011;74592;48.846;2.358;2024-01-30T20:37:23;329.33;;;267.20;;
84392;SDS011;74592;48.846;2.358;2024-01-30T20:39:49;330.02;;;267.10;;
84392;SDS011;74592;48.846;2.358;2024-01-30T20:42:15;282.13;;;225.25;;
84392;SDS011;74592;48.846;2.358;2024-01-30T20:44:40;260.00;;;202.40;;
84392;SDS011;74592;48.846;2.358;2024-01-30T20:47:06;265.33;;;200.05;;
84392;SDS011;74592;48.846;2.358;2024-01-30T20:49:34;239.35;;;184.27;;
84392;SDS011;74592;48.846;2.358;2024-01-30T20:52:00;251.52;;;194.32;;
84392;SDS011;74592;48.846;2.358;2024-01-30T20:54:26;300.98;;;250.35;;
84392;SDS011;74592;48.846;2.358;2024-01-30T20:56:52;349.45;;;288.80;;
84392;SDS011;74592;48.846;2.358;2024-01-30T20:59:17;316.98;;;261.38;;
84392;SDS011;74592;48.846;2.358;2024-01-30T21:01:43;325.30;;;265.25;;
84392;SDS011;74592;48.846;2.358;2024-01-30T21:04:08;330.70;;;269.70;;
84392;SDS011;74592;48.846;2.358;2024-01-30T21:06:34;318.70;;;263.92;;
84392;SDS011;74592;48.846;2.358;2024-01-30T21:08:59;298.10;;;244.57;;
84392;SDS011;74592;48.846;2.358;2024-01-30T21:11:25;298.88;;;240.40;;
84392;SDS011;74592;48.846;2.358;2024-01-30T21:13:51;294.13;;;237.55;;
84392;SDS011;74592;48.846;2.358;2024-01-30T21:16:17;283.48;;;234.30;;
84392;SDS011;74592;48.846;2.358;2024-01-30T21:18:42;276.35;;;220.23;;
84392;SDS011;74592;48.846;2.358;2024-01-30T21:21:08;265.33;;;213.73;;
84392;SDS011;74592;48.846;2.358;2024-01-30T21:23:34;252.02;;;203.15;;
84392;SDS011;74592;48.846;2.358;2024-01-30T21:26:00;240.00;;;192.85;;
84392;SDS011;74592;48.846;2.358;2024-01-30T21:28:28;236.70;;;188.68;;
84392;SDS011;74592;48.846;2.358;2024-01-30T21:30:57;232.88;;;181.05;;
84392;SDS011;74592;48.846;2.358;2024-01-30T21:33:23;226.38;;;176.57;;
84392;SDS011;74592;48.846;2.358;2024-01-30T21:35:48;219.40;;;171.38;;
84392;SDS011;74592;48.846;2.358;2024-01-30T21:38:14;220.98;;;169.13;;
84392;SDS011;74592;48.846;2.358;2024-01-30T21:40:41;230.75;;;179.52;;
84392;SDS011;74592;48.846;2.358;2024-01-30T21:43:07;249.25;;;199.50;;
84392;SDS011;74592;48.846;2.358;2024-01-30T21:45:32;262.95;;;208.32;;
84392;SDS011;74592;48.846;2.358;2024-01-30T21:47:58;262.30;;;206.43;;
84392;SDS011;74592;48.846;2.358;2024-01-30T21:50:27;261.70;;;205.38;;
84392;SDS011;74592;48.846;2.358;2024-01-30T21:52:52;262.83;;;213.38;;
84392;SDS011;74592;48.846;2.358;2024-01-30T21:55:18;269.00;;;217.45;;
84392;SDS011;74592;48.846;2.358;2024-01-30T21:57:44;263.02;;;211.88;;
84392;SDS011;74592;48.846;2.358;2024-01-30T22:00:10;263.15;;;202.52;;
84392;SDS011;74592;48.846;2.358;2024-01-30T22:02:36;250.18;;;200.25;;
84392;SDS011;74592;48.846;2.358;2024-01-30T22:05:02;246.30;;;195.57;;
84392;SDS011;74592;48.846;2.358;2024-01-30T22:07:28;263.02;;;209.15;;
84392;SDS011;74592;48.846;2.358;2024-01-30T22:09:54;263.60;;;215.73;;
84392;SDS011;74592;48.846;2.358;2024-01-30T22:12:19;256.45;;;215.48;;
84392;SDS011;74592;48.846;2.358;2024-01-30T22:14:45;262.33;;;218.77;;
84392;SDS011;74592;48.846;2.358;2024-01-30T22:17:10;283.67;;;236.00;;
84392;SDS011;74592;48.846;2.358;2024-01-30T22:19:36;283.35;;;236.55;;
84392;SDS011;74592;48.846;2.358;2024-01-30T22:22:01;275.05;;;230.43;;
84392;SDS011;74592;48.846;2.358;2024-01-30T22:24:28;278.27;;;232.55;;
84392;SDS011;74592;48.846;2.358;2024-01-30T22:26:54;281.33;;;230.98;;
84392;SDS011;74592;48.846;2.358;2024-01-30T22:29:20;276.77;;;227.93;;
84392;SDS011;74592;48.846;2.358;2024-01-30T22:31:45;271.10;;;223.10;;
84392;SDS011;74592;48.846;2.358;2024-01-30T22:34:11;270.00;;;218.57;;
84392;SDS011;74592;48.846;2.358;2024-01-30T22:36:36;264.65;;;218.00;;
84392;SDS011;74592;48.846;2.358;2024-01-30T22:39:02;257.50;;;210.73;;
84392;SDS011;74592;48.846;2.358;2024-01-30T22:41:32;245.95;;;204.38;;
84392;SDS011;74592;48.846;2.358;2024-01-30T22:43:57;247.65;;;200.38;;
84392;SDS011;74592;48.846;2.358;2024-01-30T22:46:23;241.95;;;199.00;;
84392;SDS011;74592;48.846;2.358;2024-01-30T22:48:49;235.45;;;191.73;;
84392;SDS011;74592;48.846;2.358;2024-01-30T22:51:14;239.95;;;194.45;;
84392;SDS011;74592;48.846;2.358;2024-01-30T22:53:40;241.85;;;197.80;;
84392;SDS011;74592;48.846;2.358;2024-01-30T22:56:05;226.90;;;180.40;;
84392;SDS011;74592;48.846;2.358;2024-01-30T22:58:32;222.43;;;177.95;;
84392;SDS011;74592;48.846;2.358;2024-01-30T23:00:57;223.98;;;175.32;;
84392;SDS011;74592;48.846;2.358;2024-01-30T23:03:23;211.55;;;168.45;;
84392;SDS011;74592;48.846;2.358;2024-01-30T23:05:48;205.60;;;159.57;;
84392;SDS011;74592;48.846;2.358;2024-01-30T23:08:14;198.27;;;154.80;;
84392;SDS011;74592;48.846;2.358;2024-01-30T23:10:43;190.90;;;151.38;;
84392;SDS011;74592;48.846;2.358;2024-01-30T23:13:08;182.43;;;145.73;;
84392;SDS011;74592;48.846;2.358;2024-01-30T23:15:34;182.95;;;145.48;;
84392;SDS011;74592;48.846;2.358;2024-01-30T23:18:00;170.88;;;139.20;;
84392;SDS011;74592;48.846;2.358;2024-01-30T23:20:26;168.70;;;133.93;;
84392;SDS011;74592;48.846;2.358;2024-01-30T23:22:51;162.20;;;129.07;;
84392;SDS011;74592;48.846;2.358;2024-01-30T23:25:17;159.27;;;129.23;;
84392;SDS011;74592;48.846;2.358;2024-01-30T23:27:43;158.70;;;124.00;;
84392;SDS011;74592;48.846;2.358;2024-01-30T23:30:09;150.10;;;118.35;;
84392;SDS011;74592;48.846;2.358;2024-01-30T23:32:35;152.27;;;120.90;;
84392;SDS011;74592;48.846;2.358;2024-01-30T23:35:01;153.27;;;119.28;;
84392;SDS011;74592;48.846;2.358;2024-01-30T23:37:27;144.35;;;111.80;;
84392;SDS011;74592;48.846;2.358;2024-01-30T23:39:53;135.57;;;108.43;;
84392;SDS011;74592;48.846;2.358;2024-01-30T23:42:19;132.30;;;107.78;;
84392;SDS011;74592;48.846;2.358;2024-01-30T23:44:45;134.00;;;104.03;;
84392;SDS011;74592;48.846;2.358;2024-01-30T23:47:10;126.68;;;100.45;;
84392;SDS011;74592;48.846;2.358;2024-01-30T23:49:36;128.05;;;100.07;;
84392;SDS011;74592;48.846;2.358;2024-01-30T23:52:01;118.32;;;95.18;;
84392;SDS011;74592;48.846;2.358;2024-01-30T23:54:27;117.47;;;93.93;;
84392;SDS011;74592;48.846;2.358;2024-01-30T23:56:53;112.97;;;91.15;;
84392;SDS011;74592;48.846;2.358;2024-01-30T23:59:18;116.75;;;92.45;;
